sensor_id;sensor_type;location;lat;lon;timestamp;pressure;altitude;pressure_sealevel;temperature;humidity
30338;BME280;17143;51.888;5.408;2023-04-27T00:12:39;101951.97;;;6.06;87.79
30338;BME280;17143;51.888;5.408;2023-04-27T00:27:41;101956.41;;;5.89;88.25
30338;BME280;17143;51.888;5.408;2023-04-27T00:42:44;101959.88;;;5.71;88.59
30338;BME280;17143;51.888;5.408;2023-04-27T00:57:46;101964.63;;;5.47;89.95
30338;BME280;17143;51.888;5.408;2023-04-27T01:12:48;101947.16;;;5.26;91.15
30338;BME280;17143;51.888;5.408;2023-04-27T01:27:50;101952.59;;;5.11;91.18
30338;BME280;17143;51.888;5.408;2023-04-27T01:42:52;101945.13;;;4.86;92.20
30338;BME280;17143;51.888;5.408;2023-04-27T01:57:54;101931.97;;;4.75;93.98
30338;BME280;17143;51.888;5.408;2023-04-27T02:12:56;101926.69;;;4.73;94.43
30338;BME280;17143;51.888;5.408;2023-04-27T02:28:00;101928.53;;;4.66;94.51
30338;BME280;17143;51.888;5.408;2023-04-27T02:43:02;101916.00;;;4.52;95.36
30338;BME280;17143;51.888;5.408;2023-04-27T02:58:04;101911.78;;;4.44;96.74
30338;BME280;17143;51.888;5.408;2023-04-27T03:13:06;101919.41;;;4.34;97.74
30338;BME280;17143;51.888;5.408;2023-04-27T03:28:08;101935.22;;;4.19;97.33
30338;BME280;17143;51.888;5.408;2023-04-27T03:43:10;101930.69;;;4.08;98.17
30338;BME280;17143;51.888;5.408;2023-04-27T03:58:12;101929.53;;;3.96;99.79
30338;BME280;17143;51.888;5.408;2023-04-27T04:13:34;101939.53;;;3.93;100.00
30338;BME280;17143;51.888;5.408;2023-04-27T04:28:36;101950.16;;;3.96;100.00
30338;BME280;17143;51.888;5.408;2023-04-27T04:43:39;101953.16;;;4.09;100.00
30338;BME280;17143;51.888;5.408;2023-04-27T04:58:42;101964.31;;;4.36;100.00
30338;BME280;17143;51.888;5.408;2023-04-27T05:13:44;101972.22;;;4.73;100.00
30338;BME280;17143;51.888;5.408;2023-04-27T05:28:46;101973.41;;;5.31;100.00
30338;BME280;17143;51.888;5.408;2023-04-27T05:43:48;101973.41;;;10.35;87.02
30338;BME280;17143;51.888;5.408;2023-04-27T05:58:50;101973.56;;;11.47;74.08
30338;BME280;17143;51.888;5.408;2023-04-27T06:13:52;101967.56;;;12.39;68.52
30338;BME280;17143;51.888;5.408;2023-04-27T06:28:54;101975.63;;;13.38;65.16
30338;BME280;17143;51.888;5.408;2023-04-27T06:43:56;101983.97;;;14.48;60.24
30338;BME280;17143;51.888;5.408;2023-04-27T06:58:58;101979.38;;;14.60;56.14
30338;BME280;17143;51.888;5.408;2023-04-27T07:14:00;101981.25;;;15.25;53.46
30338;BME280;17143;51.888;5.408;2023-04-27T07:29:03;101995.78;;;15.03;49.68
30338;BME280;17143;51.888;5.408;2023-04-27T07:44:05;101979.44;;;14.31;51.00
30338;BME280;17143;51.888;5.408;2023-04-27T07:59:07;101985.31;;;15.51;51.26
30338;BME280;17143;51.888;5.408;2023-04-27T08:14:09;101995.13;;;14.60;48.99
30338;BME280;17143;51.888;5.408;2023-04-27T08:29:11;101987.50;;;14.64;50.13
30338;BME280;17143;51.888;5.408;2023-04-27T08:44:13;101976.41;;;14.85;46.97
30338;BME280;17143;51.888;5.408;2023-04-27T08:59:15;101968.53;;;15.17;47.92
30338;BME280;17143;51.888;5.408;2023-04-27T09:14:20;101966.94;;;16.03;46.53
30338;BME280;17143;51.888;5.408;2023-04-27T09:29:32;101965.59;;;15.93;46.05
30338;BME280;17143;51.888;5.408;2023-04-27T09:44:35;101951.00;;;16.00;42.00
30338;BME280;17143;51.888;5.408;2023-04-27T09:59:56;101945.91;;;15.85;42.38
30338;BME280;17143;51.888;5.408;2023-04-27T10:15:12;101940.16;;;17.20;41.91
30338;BME280;17143;51.888;5.408;2023-04-27T10:30:17;101943.06;;;17.07;40.84
30338;BME280;17143;51.888;5.408;2023-04-27T10:45:28;101928.09;;;16.87;40.48
30338;BME280;17143;51.888;5.408;2023-04-27T11:00:32;101927.00;;;17.01;39.35
30338;BME280;17143;51.888;5.408;2023-04-27T11:15:45;101911.59;;;17.69;40.89
30338;BME280;17143;51.888;5.408;2023-04-27T11:30:54;101879.28;;;17.73;40.19
30338;BME280;17143;51.888;5.408;2023-04-27T11:45:57;101879.19;;;17.32;39.11
30338;BME280;17143;51.888;5.408;2023-04-27T12:00:59;101863.75;;;17.39;40.96
30338;BME280;17143;51.888;5.408;2023-04-27T12:16:01;101862.00;;;17.00;37.03
30338;BME280;17143;51.888;5.408;2023-04-27T12:31:04;101855.31;;;17.27;37.84
30338;BME280;17143;51.888;5.408;2023-04-27T12:46:06;101841.63;;;17.55;36.85
30338;BME280;17143;51.888;5.408;2023-04-27T13:01:08;101832.53;;;17.69;36.81
30338;BME280;17143;51.888;5.408;2023-04-27T13:16:10;101828.25;;;17.93;36.59
30338;BME280;17143;51.888;5.408;2023-04-27T13:31:12;101809.50;;;18.08;34.92
30338;BME280;17143;51.888;5.408;2023-04-27T13:46:14;101792.03;;;17.46;34.01
30338;BME280;17143;51.888;5.408;2023-04-27T14:01:16;101770.44;;;17.76;34.21
30338;BME280;17143;51.888;5.408;2023-04-27T14:16:18;101763.66;;;17.39;35.69
30338;BME280;17143;51.888;5.408;2023-04-27T14:31:20;101748.47;;;17.13;36.52
30338;BME280;17143;51.888;5.408;2023-04-27T14:46:22;101724.06;;;17.17;36.82
30338;BME280;17143;51.888;5.408;2023-04-27T15:01:25;101708.53;;;17.23;36.51
30338;BME280;17143;51.888;5.408;2023-04-27T15:16:27;101696.19;;;17.22;36.92
30338;BME280;17143;51.888;5.408;2023-04-27T15:31:29;101691.72;;;16.99;37.05
30338;BME280;17143;51.888;5.408;2023-04-27T15:46:31;101676.72;;;16.76;35.28
30338;BME280;17143;51.888;5.408;2023-04-27T16:01:33;101656.03;;;16.64;36.76
30338;BME280;17143;51.888;5.408;2023-04-27T16:16:35;101623.63;;;16.06;37.45
30338;BME280;17143;51.888;5.408;2023-04-27T16:31:37;101618.34;;;16.25;38.08
30338;BME280;17143;51.888;5.408;2023-04-27T16:46:39;101595.81;;;15.73;38.85
30338;BME280;17143;51.888;5.408;2023-04-27T17:01:41;101562.72;;;15.20;39.95
30338;BME280;17143;51.888;5.408;2023-04-27T17:16:43;101570.13;;;14.92;40.00
30338;BME280;17143;51.888;5.408;2023-04-27T17:31:45;101565.31;;;14.84;41.36
30338;BME280;17143;51.888;5.408;2023-04-27T17:46:49;101563.38;;;14.62;42.15
30338;BME280;17143;51.888;5.408;2023-04-27T18:01:51;101545.78;;;14.26;42.67
30338;BME280;17143;51.888;5.408;2023-04-27T18:16:53;101540.53;;;14.08;44.82
30338;BME280;17143;51.888;5.408;2023-04-27T18:31:55;101547.19;;;13.85;45.06
30338;BME280;17143;51.888;5.408;2023-04-27T18:46:57;101543.63;;;13.67;47.08
30338;BME280;17143;51.888;5.408;2023-04-27T19:02:00;101538.38;;;13.51;49.52
30338;BME280;17143;51.888;5.408;2023-04-27T19:17:02;101529.63;;;13.34;49.30
30338;BME280;17143;51.888;5.408;2023-04-27T19:32:05;101532.16;;;13.17;50.26
30338;BME280;17143;51.888;5.408;2023-04-27T19:47:07;101519.69;;;12.97;49.33
30338;BME280;17143;51.888;5.408;2023-04-27T20:02:09;101511.63;;;12.77;50.16
30338;BME280;17143;51.888;5.408;2023-04-27T20:17:11;101506.16;;;12.58;52.37
30338;BME280;17143;51.888;5.408;2023-04-27T20:32:13;101490.78;;;12.48;52.49
30338;BME280;17143;51.888;5.408;2023-04-27T20:47:15;101479.91;;;12.26;53.37
30338;BME280;17143;51.888;5.408;2023-04-27T21:02:17;101452.31;;;12.15;55.39
30338;BME280;17143;51.888;5.408;2023-04-27T21:17:19;101417.75;;;12.04;57.59
30338;BME280;17143;51.888;5.408;2023-04-27T21:32:21;101392.19;;;11.99;56.62
30338;BME280;17143;51.888;5.408;2023-04-27T21:47:23;101361.94;;;11.88;57.05
30338;BME280;17143;51.888;5.408;2023-04-27T22:02:25;101345.56;;;11.76;57.03
30338;BME280;17143;51.888;5.408;2023-04-27T22:17:27;101336.34;;;11.68;57.37
30338;BME280;17143;51.888;5.408;2023-04-27T22:32:29;101329.97;;;11.62;58.78
30338;BME280;17143;51.888;5.408;2023-04-27T22:47:31;101306.50;;;11.62;57.66
30338;BME280;17143;51.888;5.408;2023-04-27T23:02:33;101287.53;;;11.50;57.52
30338;BME280;17143;51.888;5.408;2023-04-27T23:17:35;101266.97;;;11.40;59.82
30338;BME280;17143;51.888;5.408;2023-04-27T23:32:38;101260.16;;;11.28;60.47
30338;BME280;17143;51.888;5.408;2023-04-27T23:47:39;101222.13;;;11.17;61.17
